• Join FlightAware (Why Join?)
  • Login
  • US Flag 
10:02PM EDT


 

Airport Tracker/Info


-or-


 

Live Flight TrackerFlight Track Log ✈ FLG3862 ✈ 24-Apr-2013 ✈ KDTW - KBTV

Flight Track Log - Related Links

Times and Time Zones

All times are in EDT time to prevent confusion due to time zone crossing. See the FLG3862 flight status page for this flight to view local times or setup timezone preferences in your user account.

Time Position Orientation Groundspeed Altitude Reporting Facility
EDT Latitude Longitude Course Direction KTS MPH feet Rate Location/Type
10:48AM 42.2333 -83.3317 94° East 173 199 1,400  Level Cleveland Center
10:48AM 42.2569 -83.3128 31° Northeast 195 224 3,100 2,400 Climbing Cleveland Center
10:49AM 42.3100 -83.2675 32° Northeast 261 300 5,200 2,040 Climbing Cleveland Center
10:50AM 42.3350 -83.1758 70° East 292 336 7,400 1,800 Climbing Cleveland Center
10:51AM 42.3203 -82.7143 82° East  Level FlightAware Approximate
10:52AM 42.3410 -82.5529 71° East  Level FlightAware Approximate
10:52AM 42.3222 -82.9956 95° East 320 368 10,000  Level Cleveland Center
10:53AM 42.3665 -82.3974 94° East  Level FlightAware Approximate
10:53AM 42.3147 -82.8633 94° East 335 386 10,000  Level Cleveland Center
10:54AM 42.3278 -82.7261 83° East 347 399 11,700 1,740 Climbing Cleveland Center
10:55AM 42.3489 -82.5864 78° East 365 420 13,500 1,560 Climbing Cleveland Center
10:56AM 42.3661 -82.4322 81° East 390 449 14,900 1,500 Climbing Cleveland Center
10:57AM 42.3600 -82.2831 93° East 395 455 16,600 1,500 Climbing Cleveland Center
10:58AM 42.3542 -82.1200 93° East 409 471 18,000 1,440 Climbing Cleveland Center
10:59AM 42.3478 -81.9458 93° East 418 481 19,500 1,320 Climbing Cleveland Center
11:00AM 42.3372 -81.7881 95° East 428 493 20,700 1,020 Climbing Cleveland Center
11:01AM 42.3408 -81.6169 88° East 434 499 21,600 780 Climbing Cleveland Center
11:02AM 42.3736 -81.4431 76° East 452 520 22,300 780 Climbing Cleveland Center
11:03AM 42.4061 -81.2692 76° East 474 545 23,200 960 Climbing Cleveland Center
11:04AM 42.4361 -81.0925 77° East 474 545 24,300 1,020 Climbing Cleveland Center
11:05AM 42.4658 -80.9181 77° East 468 539 25,300 840 Climbing Cleveland Center
11:06AM 42.4914 -80.7606 78° East 473 544 26,000 600 Climbing Cleveland Center
11:07AM 42.5206 -80.5831 77° East 473 544 26,600 480 Climbing Cleveland Center
11:08AM 42.5539 -80.4056 76° East 478 550 27,000 180 Climbing Cleveland Center
11:09AM 42.6014 -80.2278 70° East 486 559 27,000  Level Cleveland Center
11:10AM 42.6550 -80.0525 67° East 497 572 27,000  Level Cleveland Center
11:11AM 42.7183 -79.8514 67° East 503 579 27,000  Level Cleveland Center
11:12AM 42.7525 -79.6700 76° East 508 585 27,000  Level Cleveland Center
11:13AM 42.7758 -79.4828 80° East 502 578 27,000  Level Cleveland Center
11:14AM 42.7989 -79.2958 80° East 497 572 27,000  Level Cleveland Center
11:15AM 42.8261 -79.1111 79° East 497 572 27,000  Level Cleveland Center
11:16AM 42.8486 -78.9267 80° East 497 572 27,000  Level Cleveland Center
11:17AM 42.8706 -78.7389 81° East 497 572 27,000  Level Cleveland Center
11:18AM 42.8947 -78.5569 80° East 497 572 27,000  Level Cleveland Center
11:19AM 42.9164 -78.3747 81° East 492 566 27,000  Level Cleveland Center
11:20AM 42.9378 -78.1869 81° East 492 566 27,000  Level Cleveland Center
11:21AM 42.9608 -78.0014 80° East 487 560 27,000  Level Cleveland Center
11:22AM 42.9800 -77.8389 81° East 487 560 27,000  Level Cleveland Center
11:23AM 43.0006 -77.6564 81° East 487 560 27,000  Level Cleveland Center
11:24AM 43.0228 -77.4706 81° East 487 560 27,000  Level Cleveland Center
11:26AM 43.0542 -77.1806 81° East 491 565 27,000  Level Boston Center
11:27AM 43.0764 -76.9944 81° East 491 565 27,000  Level Boston Center
11:28AM 43.0961 -76.8111 82° East 491 565 27,000  Level Boston Center
11:29AM 43.1206 -76.6050 81° East 486 559 27,000  Level Boston Center
11:30AM 43.1394 -76.4214 82° East 486 559 27,000  Level Boston Center
11:31AM 43.1583 -76.2375 82° East 486 559 27,000 -300 Level Boston Center
11:32AM 43.2219 -76.0761 62° Northeast 473 544 26,400 -720 Descending Boston Center
11:33AM 43.2781 -75.9511 58° Northeast 473 544 25,600 -960 Descending Boston Center
11:34AM 43.3606 -75.7672 58° Northeast 468 539 24,400 -1,140 Descending Boston Center
11:35AM 43.3975 -75.5664 76° East 453 521 23,200 -1,140 Descending Boston Center
11:36AM 43.3833 -75.3942 96° East 439 505 22,200 -900 Descending Boston Center
11:37AM 43.3683 -75.2478 98° East 439 505 21,400 -600 Descending Boston Center
11:38AM 43.3600 -75.0731 94° East 454 522 21,000 -240 Descending Boston Center
11:39AM 43.3742 -74.9108 83° East 439 505 21,000 -240 Level Boston Center
11:40AM 43.3858 -74.7486 84° East 431 496 20,600 -900 Descending Boston Center
11:41AM 43.3953 -74.5861 85° East 431 496 19,300 -780 Descending Boston Center
11:42AM 43.4064 -74.4319 84° East 420 483 19,000 -180 Descending Boston Center
11:43AM 43.4528 -74.2619 69° East 401 461 19,000  Level Boston Center
11:44AM 43.5419 -74.1672 38° Northeast 375 432 19,000 -600 Level Boston Center
11:45AM 43.6478 -74.0528 38° Northeast 402 463 17,800 -1,200 Descending Boston Center
11:46AM 43.7367 -73.9603 37° Northeast 420 483 16,600 -1,200 Descending Boston Center
11:47AM 43.8317 -73.8589 38° Northeast 426 490 15,400 -1,200 Descending Boston Center
11:48AM 43.9183 -73.7603 39° Northeast 420 483 14,200 -1,200 Descending Boston Center
11:49AM 44.0069 -73.6669 37° Northeast 408 470 13,000 -1,260 Descending Boston Center
11:50AM 44.1014 -73.5936 29° Northeast 394 453 11,700 -1,320 Descending Boston Center
11:51AM 44.1936 -73.5231 29° Northeast 382 440 10,400 -1,260 Descending Boston Center
11:52AM 44.2714 -73.4636 29° Northeast 338 389 9,200 -1,620 Descending Boston Center
11:53AM 44.3447 -73.4097 28° Northeast 301 346 7,200 -1,740 Descending Boston Center
11:54AM 44.4222 -73.3789 16° North 286 329 5,400 -1,920 Descending Boston Center
11:55AM 44.5100 -73.3192 26° Northeast 267 307 3,000 -2,400 Descending Boston Center